• Join FlightAware (Why Join?)
  • Login
  • US Flag 
06:51AM EDT


 

Airport Tracker/Info


-or-


 

Live Flight TrackerFlight Track Log ✈ QLK376D ✈ 11-May-2013 ✈ YBBN / BNE - YHBA / HVB

Flight Track Log - Related Links

Times and Time Zones

All times are in EDT time to prevent confusion due to time zone crossing. See the QLK376D flight status page for this flight to view local times or setup timezone preferences in your user account.

Time Position Orientation Groundspeed Altitude Reporting Facility
EDT Latitude Longitude Course Direction KTS MPH feet Rate Location/Type
07:37PM -27.4083 153.1159 245° Southwest 133 153 1,000  Level Aus ATC (RADAR)
07:37PM -27.4161 153.0967 245° Southwest 146 168 1,700 2,280 Climbing Aus ATC (RADAR)
07:38PM -27.4015 153.0592 294° West 208 239 3,300 2,820 Climbing Aus ATC (RADAR)
07:38PM -27.3786 153.0153 300° West 209 241 5,500 2,820 Climbing Aus ATC (RADAR)
07:39PM -27.3481 152.9947 329° Northwest 214 246 7,100 2,400 Climbing Aus ATC (RADAR)
07:40PM -27.3111 152.9793 340° North 238 274 8,300 2,280 Climbing Aus ATC (RADAR)
07:40PM -27.2730 152.9643 341° North 245 282 9,800 2,460 Climbing Aus ATC (RADAR)
07:41PM -27.2392 152.9765 18° North 248 285 11,000 2,160 Climbing Aus ATC (RADAR)
07:42PM -27.1583 152.9957 12° North 259 298 13,400 1,980 Climbing Aus ATC (RADAR)
07:42PM -27.1278 153.0013 North 264 304 14,200 1,080 Climbing Aus ATC (RADAR)
07:43PM -27.0895 153.0080 North 278 320 14,400 120 Climbing Aus ATC (RADAR)
07:43PM -27.0236 153.0188 North 321 369 14,400  Level Aus ATC (RADAR)
07:44PM -26.9689 153.0275 North 340 391 14,400  Level Aus ATC (RADAR)
07:45PM -26.9120 153.0235 356° North 349 402 14,400  Level Aus ATC (RADAR)
07:45PM -26.8577 153.0161 353° North 338 389 14,400  Level Aus ATC (RADAR)
07:46PM -26.8119 153.0116 355° North 331 381 14,400  Level Aus ATC (RADAR)
07:47PM -26.6920 153.0006 355° North 324 373 14,400  Level Aus ATC (RADAR)
07:47PM -26.6549 152.9975 356° North 322 371 14,400  Level Aus ATC (RADAR)
07:48PM -26.6031 152.9932 356° North 320 368 14,400  Level Aus ATC (RADAR)
07:49PM -26.5370 152.9875 356° North 318 366 14,400 -120 Level Aus ATC (RADAR)
07:49PM -26.4855 152.9832 356° North 318 366 14,300 -120 Descending Aus ATC (RADAR)
07:50PM -26.4335 152.9786 355° North 321 369 14,300  Level Aus ATC (RADAR)
07:50PM -26.3890 152.9737 354° North 321 369 14,300  Level Aus ATC (RADAR)
07:51PM -26.3363 152.9686 355° North 325 374 14,300  Level Aus ATC (RADAR)
07:52PM -26.2528 152.9600 355° North 329 379 14,300  Level Aus ATC (RADAR)
07:52PM -26.2146 152.9578 357° North 330 380 14,300  Level Aus ATC (RADAR)
07:53PM -26.1532 152.9522 355° North 329 379 14,300  Level Aus ATC (RADAR)
07:54PM -26.0916 152.9468 356° North 331 381 14,300  Level Aus ATC (RADAR)
07:54PM -26.0377 152.9430 356° North 333 383 14,300 -480 Level Aus ATC (RADAR)
07:55PM -25.9832 152.9368 354° North 336 387 13,800 -1,500 Descending Aus ATC (RADAR)
07:55PM -25.9276 152.9343 358° North 340 391 12,600 -2,100 Descending Aus ATC (RADAR)
07:56PM -25.8739 152.9298 356° North 332 382 11,400 -1,800 Descending Aus ATC (RADAR)
07:57PM -25.7700 152.9215 356° North 291 335 9,300 -1,620 Descending Aus ATC (RADAR)
07:58PM -25.7384 152.9175 353° North 279 321 8,700 -1,440 Descending Aus ATC (RADAR)
07:58PM -25.6963 152.9139 356° North 261 300 7,900 -1,380 Descending Aus ATC (RADAR)
07:59PM -25.6448 152.9078 354° North 251 289 6,900 -1,380 Descending Aus ATC (RADAR)
08:00PM -25.6024 152.9036 355° North 261 300 6,100 -1,380 Descending Aus ATC (RADAR)
08:00PM -25.5501 152.9010 357° North 250 288 5,100 -1,380 Descending Aus ATC (RADAR)
08:01PM -25.5278 152.8991 356° North 244 281 4,700 -1,260 Descending Aus ATC (RADAR)
08:01PM -25.4873 152.8954 355° North 250 288 4,000 -1,200 Descending Aus ATC (RADAR)
08:03PM -25.4144 152.8889 355° North  Level FlightAware Approximate
08:10PM -25.3188 152.8803 352° North  Level FlightAware Approximate